Time;durP1;ratioP1;P1;durP2;ratioP2;P2;SDS_P1;SDS_P2;PMS_P1;PMS_P2;Temp;Humidity;BMP_temperature;BMP_pressure;BME280_temperature;BME280_humidity;BME280_pressure;Samples;Min_cycle;Max_cycle;Signal;HPM_P1;HPM_P2
2021/03/09 00:02:06;;;;;;;12.60;7.07;;;2.40;59.60;;;;;;5052072;28;20481;-74
2021/03/09 00:04:32;;;;;;;11.80;6.95;;;2.40;59.70;;;;;;5052037;28;20036;-73
2021/03/09 00:06:57;;;;;;;11.15;7.47;;;2.30;60.10;;;;;;5052363;28;20021;-73
2021/03/09 00:09:23;;;;;;;14.10;7.95;;;2.40;60.40;;;;;;5052438;28;20053;-73
2021/03/09 00:11:49;;;;;;;10.82;6.80;;;2.40;60.60;;;;;;5052119;28;20033;-74
2021/03/09 00:14:14;;;;;;;14.45;7.43;;;2.40;61.10;;;;;;5052352;28;20044;-73
2021/03/09 00:16:40;;;;;;;10.90;7.07;;;2.30;61.50;;;;;;5052298;28;20068;-73
2021/03/09 00:19:05;;;;;;;10.95;7.00;;;2.30;62.00;;;;;;5052256;28;20135;-73
2021/03/09 00:21:31;;;;;;;15.50;7.53;;;2.30;62.30;;;;;;5052282;28;20104;-73
2021/03/09 00:23:56;;;;;;;9.73;6.63;;;2.20;62.70;;;;;;5052172;28;20029;-74
2021/03/09 00:26:22;;;;;;;14.80;7.38;;;2.10;63.30;;;;;;5034413;28;20025;-73
2021/03/09 00:28:47;;;;;;;13.70;7.43;;;2.20;63.50;;;;;;5052448;28;20078;-74
2021/03/09 00:31:13;;;;;;;10.02;6.70;;;2.10;63.80;;;;;;5052272;28;20055;-74
2021/03/09 00:33:39;;;;;;;10.35;7.10;;;2.20;64.00;;;;;;5052136;28;20090;-74
2021/03/09 00:36:04;;;;;;;11.27;7.35;;;2.20;64.00;;;;;;5052115;28;20100;-74
2021/03/09 00:38:30;;;;;;;11.95;7.63;;;2.10;64.10;;;;;;5052218;28;20044;-75
2021/03/09 00:40:55;;;;;;;12.02;7.47;;;2.10;64.40;;;;;;5034164;28;20028;-73
2021/03/09 00:43:21;;;;;;;10.45;7.15;;;2.10;64.50;;;;;;5052086;28;20029;-74
2021/03/09 00:45:46;;;;;;;12.18;7.22;;;2.10;64.70;;;;;;5065163;28;20100;-72
2021/03/09 00:48:12;;;;;;;14.23;8.18;;;2.10;64.80;;;;;;5075325;28;20052;-73
2021/03/09 00:50:38;;;;;;;13.68;8.00;;;2.10;65.60;;;;;;5059853;28;20025;-74
2021/03/09 00:53:03;;;;;;;14.65;8.25;;;2.00;65.10;;;;;;5052622;28;20503;-74
2021/03/09 00:55:29;;;;;;;12.93;8.13;;;2.00;65.30;;;;;;5052361;28;20096;-74
2021/03/09 00:57:56;;;;;;;14.75;7.97;;;2.00;65.60;;;;;;5052238;28;20100;-74
2021/03/09 01:00:23;;;;;;;15.13;9.23;;;1.90;65.90;;;;;;5051951;28;20047;-73
2021/03/09 01:02:48;;;;;;;15.20;9.20;;;1.90;66.20;;;;;;5051890;28;20104;-73
2021/03/09 01:05:14;;;;;;;11.70;7.88;;;1.80;66.30;;;;;;5051920;28;20096;-73
2021/03/09 01:07:40;;;;;;;13.85;8.43;;;1.80;66.70;;;;;;5051994;28;20032;-74
2021/03/09 01:10:06;;;;;;;14.35;8.23;;;1.80;66.90;;;;;;5051877;28;20031;-73
2021/03/09 01:12:32;;;;;;;13.88;8.15;;;1.70;67.00;;;;;;5051495;28;20544;-73
2021/03/09 01:14:57;;;;;;;13.52;8.02;;;1.70;67.40;;;;;;5036074;28;20017;-73
2021/03/09 01:17:23;;;;;;;15.55;8.65;;;1.70;67.80;;;;;;5055490;28;20028;-73
2021/03/09 01:19:48;;;;;;;13.60;8.13;;;1.60;67.90;;;;;;5055445;28;20040;-73
2021/03/09 01:22:14;;;;;;;17.33;8.60;;;1.60;68.20;;;;;;5055347;28;20556;-74
2021/03/09 01:24:39;;;;;;;16.92;8.65;;;1.60;68.30;;;;;;5055318;28;20470;-73
2021/03/09 01:27:05;;;;;;;18.65;9.02;;;1.60;68.40;;;;;;5055153;28;20025;-73
2021/03/09 01:29:31;;;;;;;11.75;8.57;;;1.60;68.40;;;;;;5055127;28;20017;-74
2021/03/09 01:31:56;;;;;;;16.05;8.32;;;1.50;68.50;;;;;;5055065;28;20308;-73
2021/03/09 01:34:22;;;;;;;14.82;9.23;;;1.60;68.60;;;;;;5055121;28;20032;-73
2021/03/09 01:36:48;;;;;;;16.42;9.07;;;1.50;68.60;;;;;;5055184;28;20127;-74
2021/03/09 01:39:13;;;;;;;14.77;9.20;;;1.50;68.60;;;;;;5055184;28;20029;-73
2021/03/09 01:41:39;;;;;;;14.05;9.40;;;1.50;68.80;;;;;;5055014;28;20103;-74
2021/03/09 01:44:05;;;;;;;14.60;9.27;;;1.50;68.70;;;;;;5055036;28;20075;-74
2021/03/09 01:46:33;;;;;;;15.55;8.60;;;1.50;68.30;;;;;;5055048;28;20029;-73
2021/03/09 01:48:59;;;;;;;16.83;10.27;;;1.50;68.50;;;;;;5054949;28;20104;-74
2021/03/09 01:51:24;;;;;;;20.50;11.63;;;1.50;68.30;;;;;;5054783;28;20500;-73
2021/03/09 01:53:50;;;;;;;22.83;13.40;;;1.60;68.00;;;;;;5054855;28;20032;-73
2021/03/09 01:56:16;;;;;;;25.27;13.75;;;1.50;66.60;;;;;;5054809;28;20029;-73
2021/03/09 01:58:47;;;;;;;27.20;13.98;;;1.40;66.20;;;;;;5054723;28;20168;-72
2021/03/09 02:01:13;;;;;;;26.25;15.10;;;1.40;66.10;;;;;;5054568;28;20447;-73
2021/03/09 02:03:39;;;;;;;24.65;13.77;;;1.30;66.00;;;;;;5054641;28;20108;-74
2021/03/09 02:06:05;;;;;;;22.23;13.20;;;1.30;65.70;;;;;;5054587;28;20147;-74
2021/03/09 02:08:31;;;;;;;22.33;12.75;;;1.30;65.50;;;;;;5054589;28;20051;-72
2021/03/09 02:10:57;;;;;;;28.00;15.27;;;1.20;64.40;;;;;;5054453;28;20017;-74
2021/03/09 02:13:49;;;;;;;27.10;15.00;;;1.20;63.70;;;;;;5036368;28;20052;-73
2021/03/09 02:16:22;;;;;;;27.45;15.80;;;1.10;63.00;;;;;;5054432;28;20025;-73
2021/03/09 02:19:29;;;;;;;34.60;16.65;;;1.10;61.60;;;;;;5054343;28;20063;-73
2021/03/09 02:22:36;;;;;;;26.95;15.13;;;1.00;60.50;;;;;;5054334;28;20149;-73
2021/03/09 02:25:22;;;;;;;25.77;14.05;;;0.90;59.80;;;;;;5020293;28;20037;-71
2021/03/09 02:28:11;;;;;;;25.42;15.23;;;0.80;59.70;;;;;;5054029;28;20107;-73
2021/03/09 02:30:42;;;;;;;23.92;14.82;;;0.80;59.70;;;;;;5054165;28;20017;-73
2021/03/09 02:33:19;;;;;;;22.70;13.45;;;0.70;59.90;;;;;;5053828;28;20033;-73
2021/03/09 02:36:11;;;;;;;26.90;14.63;;;0.70;60.00;;;;;;5053911;28;20017;-73
2021/03/09 02:38:47;;;;;;;25.15;15.20;;;0.70;60.10;;;;;;5037330;28;20048;-74
2021/03/09 02:41:14;;;;;;;22.23;13.70;;;0.60;60.40;;;;;;5055012;28;20131;-74
2021/03/09 02:43:43;;;;;;;26.83;15.18;;;0.50;60.60;;;;;;5054326;28;20028;-73
2021/03/09 02:46:10;;;;;;;26.90;14.55;;;0.50;60.80;;;;;;5053703;28;20362;-73
2021/03/09 02:48:38;;;;;;;22.58;14.07;;;0.50;60.90;;;;;;5035782;28;20071;-73
2021/03/09 02:51:05;;;;;;;23.77;14.10;;;0.60;60.90;;;;;;5053693;28;20036;-73
2021/03/09 02:53:33;;;;;;;22.65;13.32;;;0.50;60.90;;;;;;5053459;28;20394;-73
2021/03/09 02:56:03;;;;;;;25.90;13.75;;;0.50;60.80;;;;;;5053644;28;20067;-73
2021/03/09 02:58:30;;;;;;;23.30;12.73;;;0.50;60.70;;;;;;5053796;28;20146;-73
2021/03/09 03:01:00;;;;;;;19.80;12.07;;;0.50;60.80;;;;;;5053398;28;20023;-74
2021/03/09 03:03:27;;;;;;;19.48;10.75;;;0.50;60.80;;;;;;5053333;28;20036;-74
2021/03/09 03:06:00;;;;;;;25.83;12.20;;;0.50;60.80;;;;;;5053509;28;20381;-74
2021/03/09 03:08:28;;;;;;;24.40;13.23;;;0.30;60.70;;;;;;5053348;28;20536;-73
2021/03/09 03:12:04;;;;;;;18.63;11.45;;;0.20;61.00;;;;;;5053269;28;20080;-74
2021/03/09 03:14:31;;;;;;;21.48;12.60;;;0.20;61.30;;;;;;4963522;28;20045;-75
2021/03/09 03:17:01;;;;;;;23.30;13.45;;;0.20;61.50;;;;;;5033383;28;20040;-72
2021/03/09 03:19:27;;;;;;;25.90;13.10;;;0.10;61.60;;;;;;5015506;28;20036;-73
2021/03/09 03:21:54;;;;;;;20.45;12.02;;;0.00;61.90;;;;;;5015569;28;20036;-75
2021/03/09 03:24:24;;;;;;;23.23;12.85;;;0.10;62.10;;;;;;5015780;28;20026;-75
2021/03/09 03:27:03;;;;;;;22.27;13.52;;;0.10;62.20;;;;;;5014873;28;20482;-73
2021/03/09 03:29:29;;;;;;;20.48;11.55;;;0.10;62.30;;;;;;5033714;28;20117;-73
2021/03/09 03:32:01;;;;;;;21.90;12.32;;;0.20;62.20;;;;;;5033626;28;20025;-74
2021/03/09 03:34:27;;;;;;;20.83;12.07;;;0.20;61.90;;;;;;5033179;28;20036;-73
2021/03/09 03:37:01;;;;;;;20.48;11.38;;;0.10;61.80;;;;;;5033185;28;20025;-74
2021/03/09 03:40:09;;;;;;;22.15;12.23;;;0.10;61.90;;;;;;5033155;28;20418;-73
2021/03/09 03:42:36;;;;;;;25.73;12.88;;;0.00;62.00;;;;;;5027243;28;20033;-73
2021/03/09 03:45:02;;;;;;;21.00;12.23;;;0.10;62.20;;;;;;5032835;28;20060;-73
2021/03/09 03:47:41;;;;;;;21.55;12.15;;;0.10;62.20;;;;;;5032919;28;20025;-73
2021/03/09 03:50:19;;;;;;;19.23;11.57;;;0.10;62.20;;;;;;5025772;28;20024;-75
2021/03/09 03:53:27;;;;;;;21.92;12.10;;;0.10;62.20;;;;;;5032782;28;20116;-75
2021/03/09 03:56:13;;;;;;;23.33;12.35;;;0.10;62.40;;;;;;5032784;28;20084;-74
2021/03/09 03:58:46;;;;;;;17.40;9.82;;;0.10;62.50;;;;;;5032674;28;20021;-74
2021/03/09 04:01:31;;;;;;;19.77;11.57;;;0.10;62.70;;;;;;5032686;28;20029;-74
2021/03/09 04:04:17;;;;;;;14.20;8.30;;;0.10;62.80;;;;;;5032507;28;20026;-74
2021/03/09 04:06:46;;;;;;;17.55;10.43;;;0.10;63.20;;;;;;5032635;28;20022;-74
2021/03/09 04:09:12;;;;;;;16.58;9.75;;;0.10;63.40;;;;;;5032464;28;20169;-75
2021/03/09 04:11:39;;;;;;;21.10;11.13;;;0.00;63.80;;;;;;5032372;28;20024;-73
2021/03/09 04:14:06;;;;;;;18.25;10.45;;;0.00;64.30;;;;;;5049047;28;20080;-74
2021/03/09 04:16:34;;;;;;;20.35;10.50;;;0.00;64.70;;;;;;5034485;28;20067;-74
2021/03/09 04:19:02;;;;;;;18.05;10.23;;;-0.10;64.90;;;;;;5034222;28;20079;-73
2021/03/09 04:21:29;;;;;;;18.40;11.10;;;-0.10;65.10;;;;;;5052314;28;20017;-72
2021/03/09 04:23:55;;;;;;;18.15;11.00;;;-0.10;65.20;;;;;;5034243;28;20390;-72
2021/03/09 04:26:22;;;;;;;18.15;10.77;;;0.00;65.10;;;;;;5052226;28;20140;-72
2021/03/09 04:28:49;;;;;;;18.13;10.57;;;0.10;65.10;;;;;;5052147;28;20032;-73
2021/03/09 04:31:17;;;;;;;20.48;10.68;;;0.10;64.80;;;;;;5034267;28;20021;-73
2021/03/09 04:33:43;;;;;;;16.00;10.10;;;0.10;64.50;;;;;;5051865;28;20098;-73
2021/03/09 04:36:08;;;;;;;19.63;10.32;;;0.10;64.30;;;;;;5034097;28;20025;-73
2021/03/09 04:38:34;;;;;;;19.13;11.02;;;0.10;64.10;;;;;;5052210;28;20025;-73
2021/03/09 04:41:01;;;;;;;17.45;10.15;;;0.10;63.90;;;;;;5034050;28;20453;-72
2021/03/09 04:43:26;;;;;;;16.60;9.68;;;0.10;63.60;;;;;;5051949;28;20390;-73
2021/03/09 04:45:56;;;;;;;17.20;10.45;;;0.00;63.30;;;;;;5033966;28;20025;-73
2021/03/09 04:48:23;;;;;;;23.35;12.85;;;-0.10;63.20;;;;;;5034046;28;20029;-73
2021/03/09 04:50:50;;;;;;;45.70;22.85;;;-0.10;63.40;;;;;;5055311;28;20017;-73
2021/03/09 04:53:16;;;;;;;52.78;24.65;;;-0.10;63.50;;;;;;5055624;28;20037;-73
2021/03/09 04:55:42;;;;;;;53.03;25.27;;;-0.10;63.50;;;;;;5038073;28;20029;-73
2021/03/09 04:58:08;;;;;;;45.08;21.65;;;-0.20;63.40;;;;;;5056583;28;20036;-73
2021/03/09 05:00:33;;;;;;;40.75;20.52;;;-0.20;63.50;;;;;;5060342;28;20076;-73
2021/03/09 05:02:59;;;;;;;36.20;17.65;;;-0.20;63.40;;;;;;5061355;28;20029;-72
2021/03/09 05:05:24;;;;;;;32.10;15.65;;;-0.30;63.50;;;;;;5077439;28;20029;-74
2021/03/09 05:07:52;;;;;;;32.97;14.73;;;-0.30;63.60;;;;;;5050176;28;20469;-73
2021/03/09 05:10:18;;;;;;;30.00;15.65;;;-0.40;63.70;;;;;;5059467;28;20024;-73
2021/03/09 05:12:46;;;;;;;26.95;14.73;;;-0.40;64.00;;;;;;5057528;28;20049;-73
2021/03/09 05:15:12;;;;;;;28.13;14.23;;;-0.40;64.10;;;;;;5056943;28;20033;-73
2021/03/09 05:17:38;;;;;;;27.30;14.77;;;-0.40;64.20;;;;;;5038535;28;20500;-73
2021/03/09 05:20:09;;;;;;;28.25;15.02;;;-0.40;64.20;;;;;;5056351;28;20528;-73
2021/03/09 05:22:35;;;;;;;32.70;16.02;;;-0.40;64.10;;;;;;5056159;28;20029;-73
2021/03/09 05:25:00;;;;;;;27.88;14.60;;;-0.40;64.10;;;;;;5038371;28;20048;-72
2021/03/09 05:27:26;;;;;;;27.00;14.00;;;-0.30;64.10;;;;;;5038413;28;20086;-73
2021/03/09 05:29:52;;;;;;;23.90;12.57;;;-0.30;64.10;;;;;;5055896;28;20032;-74
2021/03/09 05:32:18;;;;;;;24.85;13.77;;;-0.40;64.00;;;;;;5055859;28;20037;-74
2021/03/09 05:34:43;;;;;;;29.17;14.05;;;-0.40;64.20;;;;;;5055802;28;20108;-74
2021/03/09 05:37:10;;;;;;;24.45;11.95;;;-0.50;64.60;;;;;;5037452;28;20025;-74
2021/03/09 05:39:39;;;;;;;24.92;11.63;;;-0.50;65.10;;;;;;5055913;28;20029;-73
2021/03/09 05:42:08;;;;;;;25.30;11.00;;;-0.50;65.70;;;;;;5055638;28;20025;-73
2021/03/09 05:44:34;;;;;;;16.75;10.27;;;-0.60;66.00;;;;;;5056000;28;20017;-74
2021/03/09 05:47:04;;;;;;;18.58;10.63;;;-0.60;66.30;;;;;;5055677;28;20017;-74
2021/03/09 05:49:29;;;;;;;22.75;10.10;;;-0.60;66.60;;;;;;5055754;28;20527;-74
2021/03/09 05:51:55;;;;;;;18.17;11.00;;;-0.60;66.90;;;;;;5055780;28;20037;-73
2021/03/09 05:54:22;;;;;;;38.00;17.25;;;-0.60;67.10;;;;;;5037998;28;20025;-74
2021/03/09 05:56:47;;;;;;;51.20;23.20;;;-0.60;67.50;;;;;;5055579;28;20031;-73
2021/03/09 05:59:14;;;;;;;95.78;39.83;;;-0.60;67.90;;;;;;5037727;28;20123;-74
2021/03/09 06:01:39;;;;;;;106.20;46.47;;;-0.60;67.90;;;;;;5054332;28;20049;-73
2021/03/09 06:04:06;;;;;;;89.47;39.28;;;-0.60;68.00;;;;;;5037555;28;20060;-74
2021/03/09 06:06:32;;;;;;;60.00;27.20;;;-0.50;68.40;;;;;;5055794;28;20026;-74
2021/03/09 06:08:58;;;;;;;43.30;22.70;;;-0.60;69.50;;;;;;5055434;28;20033;-74
2021/03/09 06:11:24;;;;;;;41.30;20.02;;;-0.50;69.60;;;;;;5055847;28;20444;-74
2021/03/09 06:13:50;;;;;;;32.35;16.38;;;-0.50;69.80;;;;;;5056900;28;20049;-74
2021/03/09 06:16:16;;;;;;;28.75;14.35;;;-0.40;69.70;;;;;;5055610;28;20020;-74
2021/03/09 06:18:52;;;;;;;30.48;16.40;;;-0.40;69.40;;;;;;5036907;28;20047;-74
2021/03/09 06:21:18;;;;;;;40.80;17.63;;;-0.30;69.10;;;;;;5036533;28;20048;-74
2021/03/09 06:23:44;;;;;;;34.65;14.82;;;-0.30;69.00;;;;;;5054343;28;20382;-74
2021/03/09 06:26:33;;;;;;;23.25;12.25;;;-0.30;69.30;;;;;;5054360;28;20060;-74
2021/03/09 06:29:16;;;;;;;24.83;11.13;;;-0.20;70.30;;;;;;5054134;28;20023;-74
2021/03/09 06:32:01;;;;;;;25.05;12.13;;;-0.10;69.20;;;;;;5053883;28;20033;-74
2021/03/09 06:34:28;;;;;;;22.73;10.68;;;-0.10;69.00;;;;;;5054190;28;20048;-74
2021/03/09 06:37:24;;;;;;;19.40;10.68;;;0.00;68.80;;;;;;5053899;28;20036;-74
2021/03/09 06:39:54;;;;;;;24.83;11.13;;;0.10;68.50;;;;;;5036194;28;20056;-74
2021/03/09 06:42:30;;;;;;;18.23;10.38;;;0.10;68.10;;;;;;5053921;28;20033;-74
2021/03/09 06:44:57;;;;;;;20.08;11.55;;;0.20;67.90;;;;;;5054344;28;20440;-73
2021/03/09 06:47:36;;;;;;;21.95;11.85;;;0.20;68.10;;;;;;5036283;28;20155;-74
2021/03/09 06:50:04;;;;;;;23.45;12.32;;;0.20;68.10;;;;;;5054112;28;20024;-73
2021/03/09 06:52:30;;;;;;;26.05;13.30;;;0.20;68.20;;;;;;5035989;28;20124;-72
2021/03/09 06:54:56;;;;;;;29.33;14.20;;;0.30;68.30;;;;;;5053893;28;20546;-72
2021/03/09 06:57:23;;;;;;;27.92;13.57;;;0.40;69.10;;;;;;5053870;28;20021;-72
2021/03/09 06:59:51;;;;;;;24.05;14.00;;;0.40;68.90;;;;;;5053872;28;20116;-72
2021/03/09 07:02:20;;;;;;;26.40;13.27;;;0.50;68.80;;;;;;5035727;28;20112;-73
2021/03/09 07:04:48;;;;;;;24.73;13.60;;;0.50;68.40;;;;;;5035563;28;20435;-73
2021/03/09 07:07:15;;;;;;;26.52;14.20;;;0.50;68.30;;;;;;5053785;28;20021;-72
2021/03/09 07:09:53;;;;;;;27.00;15.00;;;0.60;68.30;;;;;;5035752;28;20032;-73
2021/03/09 07:12:19;;;;;;;22.88;12.73;;;0.70;68.20;;;;;;5038674;28;20040;-73
2021/03/09 07:14:45;;;;;;;27.13;13.27;;;0.80;68.90;;;;;;5068656;28;20025;-73
2021/03/09 07:17:13;;;;;;;23.73;12.85;;;0.90;67.80;;;;;;5070855;28;20043;-73
2021/03/09 07:19:43;;;;;;;21.33;11.68;;;1.00;67.30;;;;;;5039720;28;20032;-73
2021/03/09 07:22:11;;;;;;;19.08;12.23;;;1.20;67.00;;;;;;5041806;28;20470;-73
2021/03/09 07:24:45;;;;;;;20.13;11.93;;;1.30;66.60;;;;;;5055741;28;20029;-73
2021/03/09 07:27:15;;;;;;;20.02;11.63;;;1.40;66.20;;;;;;5055434;28;20040;-73
2021/03/09 07:29:48;;;;;;;24.00;12.82;;;1.50;65.80;;;;;;5037561;28;20028;-73
2021/03/09 07:32:17;;;;;;;22.42;12.82;;;1.60;65.40;;;;;;5052966;28;20485;-73
2021/03/09 07:34:43;;;;;;;24.55;12.68;;;1.60;65.00;;;;;;5035358;28;20037;-72
2021/03/09 07:37:10;;;;;;;24.80;13.60;;;1.70;64.90;;;;;;5053088;28;20047;-74
2021/03/09 07:39:38;;;;;;;33.15;16.50;;;1.80;64.20;;;;;;5053210;28;20026;-71
2021/03/09 07:42:04;;;;;;;26.83;14.73;;;1.90;63.70;;;;;;5053175;28;20021;-73
2021/03/09 07:44:30;;;;;;;26.55;15.07;;;2.00;63.10;;;;;;5053455;28;20021;-73
2021/03/09 07:46:58;;;;;;;31.75;17.23;;;2.00;62.50;;;;;;5035760;28;20028;-73
2021/03/09 07:49:24;;;;;;;22.65;14.25;;;2.20;62.00;;;;;;5053757;28;20059;-74
2021/03/09 07:52:13;;;;;;;27.95;14.68;;;2.40;61.60;;;;;;5053042;28;20056;-75
2021/03/09 07:54:40;;;;;;;29.65;14.43;;;2.50;60.90;;;;;;5053503;28;20092;-74
2021/03/09 07:57:22;;;;;;;26.88;14.48;;;2.60;60.50;;;;;;5054004;28;20021;-74
2021/03/09 07:59:54;;;;;;;27.83;14.88;;;2.70;60.30;;;;;;5037800;28;20032;-73
2021/03/09 08:02:42;;;;;;;24.17;14.10;;;2.90;59.80;;;;;;5056319;28;20029;-74
2021/03/09 08:05:14;;;;;;;26.00;13.80;;;3.00;59.40;;;;;;5053936;28;20090;-73
2021/03/09 08:07:59;;;;;;;32.13;15.68;;;3.10;59.60;;;;;;5037271;28;20025;-74
2021/03/09 08:10:27;;;;;;;26.90;14.27;;;3.00;59.20;;;;;;5057472;28;20040;-75
2021/03/09 08:13:19;;;;;;;26.10;15.38;;;3.00;59.70;;;;;;5036080;28;20060;-71
2021/03/09 08:15:45;;;;;;;29.42;14.50;;;3.00;59.60;;;;;;5052474;28;20075;-71
2021/03/09 08:18:16;;;;;;;22.08;14.07;;;3.10;59.80;;;;;;5052469;28;20029;-75
2021/03/09 08:20:55;;;;;;;28.15;16.25;;;3.10;59.80;;;;;;5034683;28;20490;-72
2021/03/09 08:23:36;;;;;;;28.15;15.25;;;3.20;60.00;;;;;;5060021;28;20029;-72
2021/03/09 08:26:03;;;;;;;34.00;16.25;;;3.30;59.90;;;;;;5047008;28;20025;-74
2021/03/09 08:28:36;;;;;;;23.20;13.10;;;3.40;59.90;;;;;;5060489;28;20104;-73
2021/03/09 08:31:11;;;;;;;23.73;14.68;;;3.50;65.00;;;;;;5060769;28;20032;-75
2021/03/09 08:33:41;;;;;;;26.60;13.98;;;4.10;73.80;;;;;;5046239;28;20033;-73
2021/03/09 08:36:26;;;;;;;29.10;15.05;;;4.60;73.20;;;;;;5064821;28;20057;-74
2021/03/09 08:39:12;;;;;;;22.37;13.83;;;5.00;69.00;;;;;;5062017;28;20213;-73
2021/03/09 08:41:37;;;;;;;21.05;12.93;;;5.20;64.10;;;;;;5061830;28;20056;-76
2021/03/09 08:44:21;;;;;;;21.63;13.30;;;5.40;63.20;;;;;;5060889;28;20025;-76
2021/03/09 08:47:02;;;;;;;20.83;12.65;;;5.50;61.40;;;;;;5060849;28;20066;-76
2021/03/09 08:49:33;;;;;;;20.85;12.18;;;6.00;64.00;;;;;;5062397;28;20021;-78
2021/03/09 08:52:18;;;;;;;22.40;12.70;;;6.60;62.60;;;;;;5043170;28;20032;-78
2021/03/09 08:54:51;;;;;;;21.17;11.98;;;6.80;58.70;;;;;;5059422;28;20029;-76
2021/03/09 08:57:20;;;;;;;19.17;10.38;;;7.20;57.60;;;;;;5058509;28;20017;-76
2021/03/09 08:59:47;;;;;;;20.50;11.05;;;7.30;56.40;;;;;;5057193;28;20143;-75
2021/03/09 09:02:23;;;;;;;17.27;12.02;;;7.40;55.90;;;;;;5057585;28;20032;-75
2021/03/09 09:04:56;;;;;;;20.20;12.77;;;7.80;54.80;;;;;;5039322;28;20021;-75
2021/03/09 09:07:35;;;;;;;19.25;12.95;;;7.90;53.40;;;;;;5057815;28;20021;-74
2021/03/09 09:10:19;;;;;;;17.27;10.77;;;8.20;53.20;;;;;;5039452;28;20393;-75
2021/03/09 09:12:47;;;;;;;22.00;10.70;;;8.40;51.40;;;;;;5057967;28;20064;-76
2021/03/09 09:15:25;;;;;;;21.60;11.85;;;8.50;51.00;;;;;;5058164;28;20025;-76
2021/03/09 09:17:54;;;;;;;18.92;10.43;;;8.70;49.90;;;;;;5058227;28;20040;-76
2021/03/09 09:20:23;;;;;;;15.15;10.13;;;8.70;49.20;;;;;;5064016;28;20040;-75
2021/03/09 09:22:52;;;;;;;16.35;10.75;;;8.80;48.60;;;;;;5050450;28;20025;-74
2021/03/09 09:25:19;;;;;;;20.90;12.48;;;8.90;49.20;;;;;;5065510;28;20136;-73
2021/03/09 09:27:51;;;;;;;17.02;10.27;;;9.00;48.40;;;;;;5058222;28;20029;-74
2021/03/09 09:30:23;;;;;;;16.02;11.15;;;9.30;47.50;;;;;;5057431;28;20049;-73
2021/03/09 09:32:55;;;;;;;18.30;11.68;;;9.10;46.50;;;;;;5055758;28;20036;-73
2021/03/09 09:35:23;;;;;;;14.73;9.57;;;9.10;47.10;;;;;;5055283;28;20017;-74
2021/03/09 09:37:56;;;;;;;14.93;9.68;;;9.20;47.40;;;;;;5055610;28;20024;-72
2021/03/09 09:40:25;;;;;;;16.27;10.15;;;9.10;46.00;;;;;;5037776;28;20478;-75
2021/03/09 09:43:00;;;;;;;16.35;9.15;;;9.30;47.50;;;;;;5055723;28;20064;-75
2021/03/09 09:45:27;;;;;;;18.38;11.48;;;9.50;47.30;;;;;;5055609;28;20021;-73
2021/03/09 09:47:54;;;;;;;15.48;11.68;;;9.40;44.90;;;;;;5037397;28;20397;-73
2021/03/09 09:50:20;;;;;;;19.10;11.90;;;8.90;43.30;;;;;;5055860;28;20021;-72
2021/03/09 09:53:00;;;;;;;16.70;11.90;;;8.10;43.60;;;;;;5056232;28;20033;-73
2021/03/09 09:55:30;;;;;;;19.90;13.02;;;8.00;44.30;;;;;;5056528;28;20108;-72
2021/03/09 09:57:59;;;;;;;18.52;11.80;;;7.50;45.50;;;;;;5056045;28;20032;-73
2021/03/09 10:00:28;;;;;;;17.50;12.95;;;7.50;46.60;;;;;;5055728;28;20017;-72
2021/03/09 10:03:10;;;;;;;21.88;13.93;;;7.10;46.90;;;;;;5055724;28;20025;-72
2021/03/09 10:05:37;;;;;;;17.58;12.95;;;6.90;48.10;;;;;;5055256;28;20021;-73
2021/03/09 10:08:04;;;;;;;20.88;13.98;;;7.00;48.60;;;;;;5054918;28;20037;-72
2021/03/09 10:10:29;;;;;;;20.73;14.60;;;7.00;48.40;;;;;;5055695;28;20411;-72
2021/03/09 10:12:55;;;;;;;21.65;14.45;;;6.90;48.30;;;;;;5055020;28;20049;-72
2021/03/09 10:15:21;;;;;;;21.67;15.10;;;6.70;49.30;;;;;;5037374;28;20533;-72
2021/03/09 10:17:47;;;;;;;23.70;14.77;;;6.20;50.50;;;;;;5055012;28;20457;-72
2021/03/09 10:20:22;;;;;;;18.98;13.20;;;6.30;51.40;;;;;;5055142;28;20017;-72
2021/03/09 10:22:51;;;;;;;22.35;14.25;;;6.50;51.40;;;;;;5054679;28;20150;-72
2021/03/09 10:25:16;;;;;;;22.02;14.38;;;6.70;51.20;;;;;;5054758;28;20385;-73
2021/03/09 10:27:42;;;;;;;23.95;14.90;;;6.80;50.80;;;;;;5054745;28;20044;-72
2021/03/09 10:30:09;;;;;;;22.45;15.75;;;7.20;50.50;;;;;;5054536;28;20025;-72
2021/03/09 10:32:51;;;;;;;21.48;15.15;;;7.30;50.00;;;;;;5054676;28;20041;-73
2021/03/09 10:35:17;;;;;;;26.30;15.00;;;7.00;49.30;;;;;;5054557;28;20036;-71
2021/03/09 10:37:43;;;;;;;20.65;14.30;;;7.10;49.80;;;;;;5054519;28;20051;-72
2021/03/09 10:40:11;;;;;;;20.38;14.60;;;7.40;49.90;;;;;;5054274;28;20483;-73
2021/03/09 10:42:43;;;;;;;23.17;15.25;;;7.80;49.20;;;;;;5054746;28;20078;-72
2021/03/09 10:45:23;;;;;;;24.98;15.27;;;7.80;48.40;;;;;;5054805;28;20543;-73
2021/03/09 10:47:50;;;;;;;19.88;13.82;;;8.20;47.90;;;;;;5053871;28;20017;-72
2021/03/09 10:50:16;;;;;;;22.92;14.88;;;8.60;47.30;;;;;;5055109;28;20025;-73
2021/03/09 10:52:42;;;;;;;21.13;14.88;;;8.70;46.00;;;;;;5055673;28;20085;-72
2021/03/09 10:55:08;;;;;;;22.38;14.95;;;8.70;45.20;;;;;;5056829;28;20028;-73
2021/03/09 10:57:34;;;;;;;21.27;14.65;;;8.50;45.10;;;;;;5055253;28;20481;-72
2021/03/09 10:59:59;;;;;;;21.75;15.13;;;8.60;44.70;;;;;;5054974;28;20067;-72
2021/03/09 11:02:25;;;;;;;21.90;14.32;;;8.70;44.40;;;;;;5054577;28;20021;-72
2021/03/09 11:04:50;;;;;;;21.38;14.57;;;8.60;44.60;;;;;;5053437;28;20359;-72
2021/03/09 11:07:16;;;;;;;21.42;14.10;;;8.90;45.30;;;;;;5053404;28;20032;-72
2021/03/09 11:09:42;;;;;;;20.42;15.07;;;9.40;44.10;;;;;;5053474;28;20037;-72
2021/03/09 11:12:08;;;;;;;21.23;14.52;;;9.50;43.40;;;;;;5035456;28;20032;-72
2021/03/09 11:14:34;;;;;;;19.58;14.73;;;9.90;42.00;;;;;;5053612;28;20032;-72
2021/03/09 11:16:59;;;;;;;24.15;16.35;;;10.10;40.40;;;;;;5053372;28;20034;-72
2021/03/09 11:19:25;;;;;;;19.25;14.25;;;10.40;39.30;;;;;;5035432;28;20434;-72
2021/03/09 11:21:50;;;;;;;22.35;15.15;;;10.50;38.90;;;;;;5053434;28;20040;-71
2021/03/09 11:24:16;;;;;;;19.70;15.55;;;10.40;38.20;;;;;;5053385;28;20513;-71
2021/03/09 11:26:41;;;;;;;19.40;14.20;;;10.00;37.90;;;;;;5053303;28;20497;-72
2021/03/09 11:29:07;;;;;;;19.45;14.55;;;10.10;38.00;;;;;;5057799;28;20036;-72
2021/03/09 11:31:33;;;;;;;22.52;15.63;;;10.50;38.00;;;;;;5067092;28;20025;-72
2021/03/09 11:33:59;;;;;;;20.52;14.23;;;10.70;36.80;;;;;;5042961;28;20485;-72
2021/03/09 11:36:25;;;;;;;19.88;14.10;;;11.10;36.20;;;;;;5054438;28;20029;-73
2021/03/09 11:38:51;;;;;;;21.95;15.73;;;11.50;35.70;;;;;;5053500;28;20025;-71
2021/03/09 11:41:18;;;;;;;22.20;15.65;;;11.90;34.90;;;;;;5053264;28;20493;-71
2021/03/09 11:43:44;;;;;;;22.90;17.50;;;11.80;33.60;;;;;;5053173;28;20400;-71
2021/03/09 11:46:10;;;;;;;23.83;16.73;;;11.70;32.70;;;;;;5053032;28;20104;-72
2021/03/09 11:48:36;;;;;;;22.08;15.98;;;11.70;32.30;;;;;;5052915;28;20017;-73
2021/03/09 11:51:02;;;;;;;21.08;15.60;;;11.70;32.00;;;;;;5053018;28;20032;-74
2021/03/09 11:53:27;;;;;;;24.88;16.52;;;12.10;31.70;;;;;;5052847;28;20033;-71
2021/03/09 11:55:53;;;;;;;23.55;16.90;;;12.00;31.30;;;;;;5052595;28;20021;-71
2021/03/09 11:58:19;;;;;;;20.70;16.20;;;11.50;30.80;;;;;;5052973;28;20029;-74
2021/03/09 12:00:45;;;;;;;20.55;16.48;;;11.30;30.90;;;;;;5052909;28;20019;-73
2021/03/09 12:03:11;;;;;;;25.67;17.65;;;11.00;30.80;;;;;;5054216;28;20025;-72
2021/03/09 12:05:36;;;;;;;21.65;16.38;;;11.10;31.00;;;;;;5053771;28;20033;-73
2021/03/09 12:08:02;;;;;;;20.23;15.73;;;11.20;31.20;;;;;;5052949;28;20087;-73
2021/03/09 12:10:28;;;;;;;21.35;16.10;;;11.40;30.90;;;;;;5053181;28;20016;-74
2021/03/09 12:12:54;;;;;;;21.27;17.30;;;11.30;30.90;;;;;;5052792;28;20044;-73
2021/03/09 12:15:19;;;;;;;24.48;16.20;;;11.80;30.60;;;;;;5052799;28;20032;-71
2021/03/09 12:17:45;;;;;;;21.75;15.63;;;12.10;30.30;;;;;;5034961;28;20238;-72
2021/03/09 12:20:14;;;;;;;20.80;16.17;;;12.30;30.30;;;;;;5052897;28;20470;-72
2021/03/09 12:22:39;;;;;;;19.73;15.02;;;12.60;29.80;;;;;;5052990;28;20028;-74
2021/03/09 12:25:06;;;;;;;23.25;16.23;;;12.80;30.20;;;;;;5052779;28;20037;-71
2021/03/09 12:27:31;;;;;;;20.05;16.25;;;13.30;28.90;;;;;;5052829;28;20036;-72
2021/03/09 12:29:57;;;;;;;19.70;15.02;;;13.80;28.40;;;;;;5034472;28;20033;-72
2021/03/09 12:32:23;;;;;;;20.23;14.85;;;14.30;27.60;;;;;;5052481;28;20025;-73
2021/03/09 12:34:48;;;;;;;22.92;16.77;;;14.30;26.70;;;;;;5052311;28;20028;-72
2021/03/09 12:37:14;;;;;;;20.38;15.73;;;14.10;26.20;;;;;;5052539;28;20048;-72
2021/03/09 12:39:39;;;;;;;19.33;15.27;;;13.30;26.20;;;;;;5034902;28;20389;-72
2021/03/09 12:42:05;;;;;;;19.98;16.30;;;13.20;26.60;;;;;;5034795;28;20574;-73
2021/03/09 12:44:31;;;;;;;22.38;16.17;;;13.40;26.60;;;;;;5052626;28;20032;-73
2021/03/09 12:46:57;;;;;;;21.08;16.10;;;13.30;26.60;;;;;;5052676;28;20446;-72
2021/03/09 12:49:22;;;;;;;23.63;16.60;;;13.00;26.80;;;;;;5052880;28;20051;-73